Time;durP1;ratioP1;P1;durP2;ratioP2;P2;SDS_P1;SDS_P2;PMS_P1;PMS_P2;Temp;Humidity;BMP_temperature;BMP_pressure;BME280_temperature;BME280_humidity;BME280_pressure;Samples;Min_cycle;Max_cycle;Signal;HPM_P1;HPM_P2
2021/12/24 00:01:51;;;;;;;25.38;13.13;;;;;;;;;;5055673;28;20043;-78
2021/12/24 00:04:18;;;;;;;20.92;10.98;;;;;;;;;;5053237;28;20123;-78
2021/12/24 00:06:44;;;;;;;22.45;11.82;;;;;;;;;;5058175;28;20029;-78
2021/12/24 00:09:10;;;;;;;29.98;14.90;;;;;;;;;;5057506;28;20200;-78
2021/12/24 00:11:36;;;;;;;32.53;15.20;;;;;;;;;;5071292;28;20453;-78
2021/12/24 00:14:06;;;;;;;29.73;14.88;;;;;;;;;;5065783;28;20509;-78
2021/12/24 00:16:42;;;;;;;36.95;18.08;;;;;;;;;;5071733;28;20025;-78
2021/12/24 00:19:21;;;;;;;41.78;20.92;;;;;;;;;;5071927;28;20482;-78
2021/12/24 00:35:33;;;;;;;48.30;21.85;;;;;;;;;;5050914;28;20094;-78
2021/12/24 00:38:03;;;;;;;49.40;20.27;;;;;;;;;;5052261;28;20044;-78
2021/12/24 00:40:32;;;;;;;71.72;26.20;;;;;;;;;;5071519;28;20021;-79
2021/12/24 00:42:58;;;;;;;88.65;29.30;;;;;;;;;;5057612;28;20071;-79
2021/12/24 00:45:32;;;;;;;98.82;32.53;;;;;;;;;;5051249;28;20028;-78
2021/12/24 00:47:59;;;;;;;90.50;32.72;;;;;;;;;;5061535;28;20074;-78
2021/12/24 00:50:27;;;;;;;93.85;35.53;;;;;;;;;;5069090;28;20033;-78
2021/12/24 00:55:02;;;;;;;130.82;46.15;;;;;;;;;;5069887;28;20486;-78
2021/12/24 00:55:49;;;;;;;58.75;23.35;;;;;;;;;;5072881;28;20367;-78
2021/12/24 00:58:16;;;;;;;91.80;37.25;;;;;;;;;;5071330;28;20032;-78
2021/12/24 01:00:42;;;;;;;86.43;35.20;;;;;;;;;;5071398;28;20047;-78
2021/12/24 01:03:09;;;;;;;74.38;32.10;;;;;;;;;;5070336;28;20080;-77
2021/12/24 01:05:36;;;;;;;79.28;34.60;;;;;;;;;;5070429;28;20086;-78
2021/12/24 01:08:03;;;;;;;86.00;35.28;;;;;;;;;;5070735;28;20028;-78
2021/12/24 01:10:35;;;;;;;70.47;32.45;;;;;;;;;;5070383;28;20077;-78
2021/12/24 01:13:01;;;;;;;53.67;25.00;;;;;;;;;;5070708;28;20036;-78
2021/12/24 01:15:29;;;;;;;45.97;24.48;;;;;;;;;;5070138;28;20040;-78
2021/12/24 01:18:13;;;;;;;42.78;18.45;;;;;;;;;;5070723;28;20036;-78
2021/12/24 01:20:53;;;;;;;31.33;13.70;;;;;;;;;;5054077;28;20028;-78
2021/12/24 01:26:08;;;;;;;21.83;10.35;;;;;;;;;;5050328;28;20777;-78
2021/12/24 01:44:51;;;;;;;24.88;10.75;;;;;;;;;;5049682;28;20044;-77
2021/12/24 01:47:17;;;;;;;22.15;10.73;;;;;;;;;;5057119;28;20111;-81
2021/12/24 01:49:43;;;;;;;18.23;8.50;;;;;;;;;;5069576;28;20086;-78
2021/12/24 01:52:09;;;;;;;16.55;8.15;;;;;;;;;;5054373;28;20452;-78
2021/12/24 01:54:35;;;;;;;18.95;9.02;;;;;;;;;;5050828;28;20025;-77
2021/12/24 01:57:02;;;;;;;13.85;6.40;;;;;;;;;;5066397;28;20033;-77
2021/12/24 01:59:28;;;;;;;12.18;6.45;;;;;;;;;;5050358;28;20025;-78
2021/12/24 02:01:54;;;;;;;13.85;7.03;;;;;;;;;;5049745;28;20040;-78
2021/12/24 02:04:20;;;;;;;13.55;6.18;;;;;;;;;;5055117;28;20049;-78
2021/12/24 02:06:47;;;;;;;10.93;5.50;;;;;;;;;;5056712;28;20159;-77
2021/12/24 02:09:13;;;;;;;12.93;6.03;;;;;;;;;;5052528;28;20531;-78
2021/12/24 02:11:40;;;;;;;23.98;12.02;;;;;;;;;;5069505;28;20057;-77
2021/12/24 02:14:07;;;;;;;25.88;12.65;;;;;;;;;;5067743;28;20066;-78
2021/12/24 02:29:49;;;;;;;14.75;8.18;;;;;;;;;;5051610;28;20433;-77
2021/12/24 02:32:15;;;;;;;27.98;14.27;;;;;;;;;;5070403;28;20833;-78
2021/12/24 02:34:41;;;;;;;22.35;11.55;;;;;;;;;;5068965;28;20079;-78
2021/12/24 02:37:07;;;;;;;19.33;9.80;;;;;;;;;;5049629;28;20037;-78
2021/12/24 02:39:33;;;;;;;18.63;10.05;;;;;;;;;;5049119;28;20040;-77
2021/12/24 02:42:19;;;;;;;35.30;16.38;;;;;;;;;;5051439;28;20036;-78
2021/12/24 02:44:46;;;;;;;33.45;18.58;;;;;;;;;;5049162;28;20071;-78
2021/12/24 02:48:14;;;;;;;23.95;12.52;;;;;;;;;;5065958;28;20521;-77
2021/12/24 02:55:12;;;;;;;19.13;9.98;;;;;;;;;;5063708;28;20059;-78
2021/12/24 02:57:39;;;;;;;17.15;10.07;;;;;;;;;;5061330;28;20040;-78
2021/12/24 03:00:08;;;;;;;20.83;11.02;;;;;;;;;;5069096;28;20498;-77
2021/12/24 03:02:38;;;;;;;17.63;10.38;;;;;;;;;;5068937;28;20039;-77
2021/12/24 03:05:05;;;;;;;33.17;17.40;;;;;;;;;;5068376;28;20036;-77
2021/12/24 03:07:31;;;;;;;35.97;18.35;;;;;;;;;;5069170;28;20146;-77
2021/12/24 03:09:59;;;;;;;36.28;18.20;;;;;;;;;;5068396;28;20487;-77
2021/12/24 03:12:25;;;;;;;26.27;13.38;;;;;;;;;;5068837;28;20118;-77
2021/12/24 03:14:51;;;;;;;20.95;10.93;;;;;;;;;;5061635;28;20041;-77
2021/12/24 03:17:21;;;;;;;29.75;13.48;;;;;;;;;;5050669;28;20119;-78
2021/12/24 03:19:48;;;;;;;22.35;10.98;;;;;;;;;;5057474;28;20068;-77
2021/12/24 03:22:34;;;;;;;24.60;8.52;;;;;;;;;;5072866;28;20115;-78
2021/12/24 03:25:00;;;;;;;16.52;8.07;;;;;;;;;;5063038;28;20032;-77
2021/12/24 03:27:26;;;;;;;17.33;9.20;;;;;;;;;;5072920;28;20726;-78
2021/12/24 03:29:52;;;;;;;19.10;9.02;;;;;;;;;;5069535;28;20033;-77
2021/12/24 03:32:18;;;;;;;28.40;12.50;;;;;;;;;;5055185;28;20112;-77
2021/12/24 03:34:45;;;;;;;24.88;11.15;;;;;;;;;;5072534;28;20060;-78
2021/12/24 03:37:11;;;;;;;29.52;16.33;;;;;;;;;;5072199;28;20123;-78
2021/12/24 03:39:37;;;;;;;19.52;10.35;;;;;;;;;;5072058;28;20035;-77
2021/12/24 03:42:06;;;;;;;21.88;11.82;;;;;;;;;;5072169;28;20043;-78
2021/12/24 03:44:39;;;;;;;17.88;9.18;;;;;;;;;;5071879;28;20106;-77
2021/12/24 03:49:54;;;;;;;14.68;6.97;;;;;;;;;;5068935;28;20035;-78
2021/12/24 03:54:58;;;;;;;11.65;5.93;;;;;;;;;;5071944;28;20368;-78
2021/12/24 03:57:24;;;;;;;8.82;3.70;;;;;;;;;;5071657;28;20035;-79
2021/12/24 03:59:50;;;;;;;8.45;3.72;;;;;;;;;;5071814;28;20033;-78
2021/12/24 04:02:16;;;;;;;8.43;4.30;;;;;;;;;;5071410;28;20107;-78
2021/12/24 04:04:42;;;;;;;8.50;4.05;;;;;;;;;;5071283;28;20158;-77
2021/12/24 04:07:08;;;;;;;8.38;4.18;;;;;;;;;;5072087;28;20424;-77
2021/12/24 04:09:36;;;;;;;9.73;4.57;;;;;;;;;;5065986;28;20044;-77
2021/12/24 04:12:02;;;;;;;9.85;5.32;;;;;;;;;;5071590;28;20051;-78
2021/12/24 04:14:28;;;;;;;9.57;4.95;;;;;;;;;;5065450;28;20037;-78
2021/12/24 04:16:54;;;;;;;12.13;4.97;;;;;;;;;;5070836;28;20036;-78
2021/12/24 04:24:50;;;;;;;11.35;5.65;;;;;;;;;;5067726;28;20394;-78
2021/12/24 04:24:58;;;;;;;13.52;5.75;;;;;;;;;;5055879;28;20105;-76
2021/12/24 04:27:26;;;;;;;16.33;7.05;;;;;;;;;;5071206;28;20033;-78
2021/12/24 04:30:00;;;;;;;13.15;6.53;;;;;;;;;;5067749;28;20108;-78
2021/12/24 04:32:33;;;;;;;13.15;7.63;;;;;;;;;;5051732;28;20033;-78
2021/12/24 04:35:14;;;;;;;13.10;7.05;;;;;;;;;;5051065;28;20111;-78
2021/12/24 04:51:21;;;;;;;23.58;16.05;;;;;;;;;;5050830;28;20043;-78
2021/12/24 05:04:49;;;;;;;13.07;6.68;;;;;;;;;;5070289;28;20482;-78
2021/12/24 05:07:41;;;;;;;14.00;7.18;;;;;;;;;;5070055;28;20386;-78
2021/12/24 05:10:01;;;;;;;14.23;7.30;;;;;;;;;;5070976;28;20485;-78
2021/12/24 05:12:29;;;;;;;14.73;7.75;;;;;;;;;;5064796;28;20106;-78
2021/12/24 05:14:57;;;;;;;14.32;8.10;;;;;;;;;;5050552;28;20033;-78
2021/12/24 05:22:34;;;;;;;20.50;11.25;;;;;;;;;;5060984;28;20051;-78
2021/12/24 05:25:00;;;;;;;29.30;14.07;;;;;;;;;;5070055;28;20587;-78
2021/12/24 05:27:27;;;;;;;16.20;8.13;;;;;;;;;;5066906;28;20033;-78
2021/12/24 05:29:53;;;;;;;16.83;8.57;;;;;;;;;;5050073;28;20024;-78
2021/12/24 05:32:20;;;;;;;17.45;8.77;;;;;;;;;;5051550;28;20518;-78
2021/12/24 05:34:46;;;;;;;24.88;13.35;;;;;;;;;;5050152;28;20052;-78
2021/12/24 05:37:12;;;;;;;24.77;12.95;;;;;;;;;;5050030;28;20033;-78
2021/12/24 05:39:38;;;;;;;21.65;10.38;;;;;;;;;;5059860;28;20028;-78
2021/12/24 05:42:05;;;;;;;18.35;9.63;;;;;;;;;;5068774;28;20098;-78
2021/12/24 05:44:32;;;;;;;16.70;9.23;;;;;;;;;;5069608;28;20074;-79
2021/12/24 05:46:59;;;;;;;19.58;9.63;;;;;;;;;;5069853;28;20036;-78
2021/12/24 05:49:25;;;;;;;15.85;9.23;;;;;;;;;;5055736;28;20040;-78
2021/12/24 05:51:51;;;;;;;28.70;12.68;;;;;;;;;;5049851;28;20446;-78
2021/12/24 05:54:17;;;;;;;22.75;11.05;;;;;;;;;;5049253;28;20124;-78
2021/12/24 05:56:44;;;;;;;19.80;9.05;;;;;;;;;;5061259;28;20061;-77
2021/12/24 05:59:10;;;;;;;24.05;11.75;;;;;;;;;;5066730;28;20020;-78
2021/12/24 06:01:36;;;;;;;16.05;8.55;;;;;;;;;;5069273;28;20040;-78
2021/12/24 06:04:02;;;;;;;14.32;6.85;;;;;;;;;;5069439;28;20064;-78
2021/12/24 06:06:28;;;;;;;17.92;8.40;;;;;;;;;;5068698;28;20032;-78
2021/12/24 06:08:54;;;;;;;15.20;8.13;;;;;;;;;;5069305;28;20471;-78
2021/12/24 06:11:20;;;;;;;16.75;8.40;;;;;;;;;;5063250;28;20449;-78
2021/12/24 06:13:51;;;;;;;15.50;7.57;;;;;;;;;;5056070;28;20387;-77
2021/12/24 06:16:18;;;;;;;14.85;8.85;;;;;;;;;;5068981;28;20059;-78
2021/12/24 06:18:44;;;;;;;13.98;6.95;;;;;;;;;;5069388;28;20040;-78
2021/12/24 06:21:10;;;;;;;14.45;7.18;;;;;;;;;;5068771;28;20032;-78
2021/12/24 06:23:38;;;;;;;15.20;7.53;;;;;;;;;;5064895;28;20021;-78
2021/12/24 06:26:05;;;;;;;13.93;7.75;;;;;;;;;;5049405;28;20894;-78
2021/12/24 06:28:31;;;;;;;14.98;8.43;;;;;;;;;;5058623;28;20521;-78
2021/12/24 06:30:57;;;;;;;14.82;7.90;;;;;;;;;;5063805;28;20037;-78
2021/12/24 06:33:24;;;;;;;13.20;8.02;;;;;;;;;;5058429;28;20025;-78
2021/12/24 06:35:53;;;;;;;16.35;7.85;;;;;;;;;;5056721;28;20041;-77
2021/12/24 06:38:19;;;;;;;18.13;9.05;;;;;;;;;;5063923;28;20608;-78
2021/12/24 06:40:45;;;;;;;15.60;9.18;;;;;;;;;;5064390;28;20068;-78
2021/12/24 06:43:11;;;;;;;16.52;9.85;;;;;;;;;;5054771;28;20082;-77
2021/12/24 06:45:37;;;;;;;18.60;9.55;;;;;;;;;;5059327;28;20029;-78
2021/12/24 06:48:04;;;;;;;21.13;11.50;;;;;;;;;;5069062;28;20025;-77
2021/12/24 06:50:31;;;;;;;18.48;11.10;;;;;;;;;;5060813;28;20037;-77
2021/12/24 06:52:57;;;;;;;21.63;10.70;;;;;;;;;;5052858;28;20091;-78
2021/12/24 06:55:23;;;;;;;18.55;9.63;;;;;;;;;;5072925;28;20024;-78
2021/12/24 06:57:49;;;;;;;20.63;10.30;;;;;;;;;;5072890;28;20021;-77
2021/12/24 07:00:17;;;;;;;20.08;11.20;;;;;;;;;;5061200;28;20061;-77
2021/12/24 07:02:43;;;;;;;22.90;11.30;;;;;;;;;;5072550;28;20039;-78
2021/12/24 07:05:09;;;;;;;20.58;9.68;;;;;;;;;;5071707;28;20035;-78
2021/12/24 07:07:35;;;;;;;18.85;9.77;;;;;;;;;;5069991;28;20032;-78
2021/12/24 07:10:02;;;;;;;18.35;9.50;;;;;;;;;;5070119;28;20037;-78
2021/12/24 07:12:27;;;;;;;17.35;8.38;;;;;;;;;;5072483;28;20460;-78
2021/12/24 07:14:54;;;;;;;17.42;9.32;;;;;;;;;;5071875;28;20028;-78
2021/12/24 07:17:20;;;;;;;16.02;9.07;;;;;;;;;;5067856;28;20036;-79
2021/12/24 07:19:46;;;;;;;14.75;8.98;;;;;;;;;;5072009;28;20854;-78
2021/12/24 07:22:13;;;;;;;18.73;10.93;;;;;;;;;;5055917;28;20180;-78
2021/12/24 07:24:39;;;;;;;18.50;8.90;;;;;;;;;;5065070;28;20063;-78
2021/12/24 07:27:05;;;;;;;14.50;7.75;;;;;;;;;;5066421;28;20449;-78
2021/12/24 07:29:31;;;;;;;17.92;10.90;;;;;;;;;;5070189;28;20125;-78
2021/12/24 07:31:57;;;;;;;22.27;10.68;;;;;;;;;;5064382;28;20822;-79
2021/12/24 07:34:24;;;;;;;52.60;29.58;;;;;;;;;;5072171;28;20112;-78
2021/12/24 07:36:50;;;;;;;37.92;22.35;;;;;;;;;;5080808;28;20029;-78
2021/12/24 07:39:16;;;;;;;31.70;17.75;;;;;;;;;;5068349;28;20055;-78
2021/12/24 07:41:47;;;;;;;18.63;11.35;;;;;;;;;;5069768;28;20115;-78
2021/12/24 07:44:13;;;;;;;17.65;10.23;;;;;;;;;;5063899;28;20048;-78
2021/12/24 07:47:18;;;;;;;16.60;9.43;;;;;;;;;;5064373;28;20515;-78
2021/12/24 07:49:38;;;;;;;15.38;8.82;;;;;;;;;;5069908;28;20119;-77
2021/12/24 07:54:33;;;;;;;15.52;9.02;;;;;;;;;;5069339;28;20036;-80
2021/12/24 07:57:00;;;;;;;12.95;6.57;;;;;;;;;;5071576;28;20112;-79
2021/12/24 07:59:26;;;;;;;12.32;5.88;;;;;;;;;;5056345;28;20040;-80
2021/12/24 08:01:53;;;;;;;20.38;10.88;;;;;;;;;;5059398;28;20654;-78
2021/12/24 08:04:19;;;;;;;21.05;11.75;;;;;;;;;;5067441;28;20368;-79
2021/12/24 08:06:45;;;;;;;20.45;11.63;;;;;;;;;;5068619;28;20025;-78
2021/12/24 08:09:11;;;;;;;19.35;11.35;;;;;;;;;;5070178;28;20037;-79
2021/12/24 08:11:38;;;;;;;19.17;11.35;;;;;;;;;;5074793;28;20820;-78
2021/12/24 08:14:05;;;;;;;25.92;13.65;;;;;;;;;;5073230;28;20033;-79
2021/12/24 08:16:32;;;;;;;31.00;15.85;;;;;;;;;;5065966;28;20035;-79
2021/12/24 08:18:58;;;;;;;32.95;17.67;;;;;;;;;;5069535;28;20112;-79
2021/12/24 08:21:25;;;;;;;51.30;24.00;;;;;;;;;;5067665;28;20111;-79
2021/12/24 08:23:51;;;;;;;38.88;18.88;;;;;;;;;;5069924;28;20043;-79
2021/12/24 08:26:17;;;;;;;23.15;12.82;;;;;;;;;;5069967;28;20037;-79
2021/12/24 08:28:44;;;;;;;26.13;11.18;;;;;;;;;;5069686;28;20103;-80
2021/12/24 08:31:10;;;;;;;20.88;13.02;;;;;;;;;;5069721;28;20035;-79
2021/12/24 08:33:36;;;;;;;23.63;14.48;;;;;;;;;;5070885;28;20060;-79
2021/12/24 08:36:04;;;;;;;22.90;12.57;;;;;;;;;;5072252;28;20082;-80
2021/12/24 08:38:30;;;;;;;19.27;12.18;;;;;;;;;;5062691;28;20045;-80
2021/12/24 08:40:56;;;;;;;16.55;9.98;;;;;;;;;;5053976;28;20534;-79
2021/12/24 08:43:22;;;;;;;20.48;10.93;;;;;;;;;;5058054;28;20044;-79
2021/12/24 08:45:48;;;;;;;22.80;12.38;;;;;;;;;;5056506;28;20025;-80
2021/12/24 08:48:14;;;;;;;20.20;11.68;;;;;;;;;;5057866;28;20075;-79
2021/12/24 08:50:40;;;;;;;19.40;11.27;;;;;;;;;;5051651;28;20055;-79
2021/12/24 08:53:07;;;;;;;21.23;11.30;;;;;;;;;;5060952;28;20040;-79
2021/12/24 08:55:33;;;;;;;21.92;10.77;;;;;;;;;;5068137;28;20083;-79
2021/12/24 08:57:59;;;;;;;17.88;9.70;;;;;;;;;;5072356;28;20033;-80
2021/12/24 09:00:25;;;;;;;17.08;9.65;;;;;;;;;;5080390;28;20471;-79
2021/12/24 09:02:51;;;;;;;19.30;9.82;;;;;;;;;;5066369;28;20375;-79
2021/12/24 09:05:17;;;;;;;17.58;9.98;;;;;;;;;;5051180;28;20024;-79
2021/12/24 09:07:44;;;;;;;20.27;9.82;;;;;;;;;;5069717;28;20033;-79
2021/12/24 09:10:10;;;;;;;20.25;9.80;;;;;;;;;;5070570;28;20051;-80
2021/12/24 09:12:37;;;;;;;15.98;8.73;;;;;;;;;;5068487;28;20060;-79
2021/12/24 09:15:04;;;;;;;19.58;10.35;;;;;;;;;;5052690;28;20053;-77
2021/12/24 09:17:31;;;;;;;19.42;9.63;;;;;;;;;;5067081;28;20116;-78
2021/12/24 09:19:58;;;;;;;18.83;10.43;;;;;;;;;;5052083;28;20117;-78
2021/12/24 09:22:30;;;;;;;17.17;10.98;;;;;;;;;;5058155;28;20032;-77
2021/12/24 09:24:57;;;;;;;16.77;9.63;;;;;;;;;;5062950;28;20802;-77
2021/12/24 09:27:23;;;;;;;19.25;10.50;;;;;;;;;;5069650;28;20029;-78
2021/12/24 09:29:49;;;;;;;16.50;10.57;;;;;;;;;;5077522;28;20024;-78
2021/12/24 09:32:16;;;;;;;20.13;12.57;;;;;;;;;;5066408;28;20485;-77
2021/12/24 09:34:42;;;;;;;23.67;14.00;;;;;;;;;;5071446;28;20960;-77
2021/12/24 09:37:08;;;;;;;23.05;15.52;;;;;;;;;;5056767;28;20372;-77
2021/12/24 09:39:35;;;;;;;69.65;30.17;;;;;;;;;;5072612;28;20389;-78
2021/12/24 09:42:01;;;;;;;87.45;36.60;;;;;;;;;;5076044;28;20860;-77
2021/12/24 09:44:29;;;;;;;39.65;21.55;;;;;;;;;;5069587;28;20140;-77
2021/12/24 09:46:55;;;;;;;24.70;14.70;;;;;;;;;;5066555;28;20035;-78
2021/12/24 09:49:22;;;;;;;23.17;13.75;;;;;;;;;;5072559;28;20106;-78
2021/12/24 09:51:51;;;;;;;28.45;14.88;;;;;;;;;;5065858;28;20573;-79
2021/12/24 09:54:22;;;;;;;16.60;8.40;;;;;;;;;;5058839;28;20462;-78
2021/12/24 09:56:48;;;;;;;20.58;12.07;;;;;;;;;;5057351;28;20107;-77
2021/12/24 09:59:14;;;;;;;34.47;14.50;;;;;;;;;;5064624;28;20033;-79
2021/12/24 10:01:43;;;;;;;20.88;12.48;;;;;;;;;;5063679;28;20029;-78
2021/12/24 10:04:13;;;;;;;21.30;11.88;;;;;;;;;;5061644;28;20881;-77
2021/12/24 10:06:48;;;;;;;16.50;9.18;;;;;;;;;;5068719;28;20079;-78
2021/12/24 10:09:16;;;;;;;17.48;9.95;;;;;;;;;;5069108;28;20033;-78
2021/12/24 10:11:47;;;;;;;21.08;10.63;;;;;;;;;;5062675;28;20056;-78
2021/12/24 10:14:13;;;;;;;19.85;11.90;;;;;;;;;;5063363;28;20491;-78
2021/12/24 10:16:44;;;;;;;25.40;15.00;;;;;;;;;;5065709;28;20068;-78
2021/12/24 10:19:10;;;;;;;25.50;14.70;;;;;;;;;;5059200;28;20037;-77
2021/12/24 10:21:36;;;;;;;24.15;14.38;;;;;;;;;;5058896;28;20031;-78
2021/12/24 10:24:03;;;;;;;25.00;13.23;;;;;;;;;;5069827;28;20714;-78
2021/12/24 10:26:34;;;;;;;21.60;12.30;;;;;;;;;;5062657;28;20032;-78
2021/12/24 10:29:00;;;;;;;20.45;11.95;;;;;;;;;;5066260;28;20459;-78
2021/12/24 10:31:34;;;;;;;23.85;12.25;;;;;;;;;;5064108;28;20474;-78
2021/12/24 10:34:05;;;;;;;30.20;16.58;;;;;;;;;;5069478;28;20120;-78
2021/12/24 10:36:31;;;;;;;25.65;13.30;;;;;;;;;;5067050;28;20567;-78
2021/12/24 10:38:57;;;;;;;24.52;15.25;;;;;;;;;;5062563;28;20062;-78
2021/12/24 10:41:25;;;;;;;12.80;7.22;;;;;;;;;;5075961;28;20107;-78
2021/12/24 10:43:52;;;;;;;17.20;10.13;;;;;;;;;;5050542;28;20044;-79
2021/12/24 10:46:18;;;;;;;17.67;10.23;;;;;;;;;;5051410;28;20031;-78
2021/12/24 10:49:02;;;;;;;18.98;9.18;;;;;;;;;;5056872;28;20114;-78
2021/12/24 10:54:13;;;;;;;23.15;12.30;;;;;;;;;;5066923;28;20114;-78
2021/12/24 10:56:39;;;;;;;20.80;11.55;;;;;;;;;;5071962;28;20058;-79
2021/12/24 10:59:05;;;;;;;20.42;12.23;;;;;;;;;;5073718;28;20036;-79
2021/12/24 11:01:31;;;;;;;21.88;13.05;;;;;;;;;;5069836;28;20033;-77
2021/12/24 11:03:57;;;;;;;23.17;13.43;;;;;;;;;;5067962;28;20040;-78
2021/12/24 11:06:29;;;;;;;22.73;14.35;;;;;;;;;;5075281;28;20096;-78
2021/12/24 11:08:56;;;;;;;22.30;14.45;;;;;;;;;;5059285;28;20040;-78
2021/12/24 11:11:22;;;;;;;20.75;13.82;;;;;;;;;;5051457;28;20155;-79
2021/12/24 11:13:51;;;;;;;20.48;12.15;;;;;;;;;;5060359;28;20037;-78
2021/12/24 11:16:18;;;;;;;19.13;11.70;;;;;;;;;;5067399;28;20032;-79
2021/12/24 11:18:46;;;;;;;22.15;12.18;;;;;;;;;;5052446;28;20063;-79
2021/12/24 11:21:18;;;;;;;24.60;13.95;;;;;;;;;;5049727;28;20471;-79
2021/12/24 11:23:44;;;;;;;25.52;14.65;;;;;;;;;;5073714;28;20037;-80
2021/12/24 11:26:18;;;;;;;27.85;15.55;;;;;;;;;;5068995;28;20036;-80
2021/12/24 11:28:44;;;;;;;27.85;15.15;;;;;;;;;;5068347;28;20040;-80
2021/12/24 11:31:19;;;;;;;28.38;16.83;;;;;;;;;;5069024;28;20028;-80
2021/12/24 11:33:46;;;;;;;21.40;12.85;;;;;;;;;;5064327;28;20536;-80
2021/12/24 11:36:13;;;;;;;25.02;14.50;;;;;;;;;;5053162;28;20071;-80
2021/12/24 11:38:46;;;;;;;23.27;14.57;;;;;;;;;;5053337;28;20455;-79
2021/12/24 11:41:13;;;;;;;21.90;13.32;;;;;;;;;;5067881;28;20034;-80
2021/12/24 11:43:40;;;;;;;27.30;17.38;;;;;;;;;;5064734;28;20094;-79
2021/12/24 11:46:08;;;;;;;36.13;23.48;;;;;;;;;;5067094;28;20033;-79
2021/12/24 11:48:34;;;;;;;35.95;22.73;;;;;;;;;;5067372;28;20390;-79
2021/12/24 11:51:13;;;;;;;44.47;29.55;;;;;;;;;;5062526;28;20035;-79
2021/12/24 11:53:40;;;;;;;38.55;26.23;;;;;;;;;;5071286;28;20037;-79
2021/12/24 11:56:08;;;;;;;28.83;20.00;;;;;;;;;;5076952;28;20078;-79
2021/12/24 11:58:41;;;;;;;26.08;15.60;;;;;;;;;;5061351;28;20771;-80
2021/12/24 12:01:07;;;;;;;23.23;14.60;;;;;;;;;;5070000;28;20040;-80
2021/12/24 12:03:35;;;;;;;22.17;13.45;;;;;;;;;;5072454;28;20041;-79
2021/12/24 12:06:05;;;;;;;23.00;13.63;;;;;;;;;;5062477;28;20053;-80
2021/12/24 12:08:33;;;;;;;24.02;16.30;;;;;;;;;;5059359;28;20079;-80
2021/12/24 12:11:14;;;;;;;25.45;15.55;;;;;;;;;;5060552;28;20432;-80
2021/12/24 12:14:01;;;;;;;24.08;14.82;;;;;;;;;;5054282;28;20114;-80
2021/12/24 12:16:27;;;;;;;22.25;12.93;;;;;;;;;;5058584;28;20041;-80
2021/12/24 12:19:11;;;;;;;35.78;20.52;;;;;;;;;;5071543;28;20044;-79
2021/12/24 12:21:42;;;;;;;47.97;25.83;;;;;;;;;;5065426;28;20383;-80
2021/12/24 12:26:46;;;;;;;23.13;13.30;;;;;;;;;;5062802;28;20768;-79
2021/12/24 12:29:29;;;;;;;23.27;12.75;;;;;;;;;;5072061;28;20085;-79
2021/12/24 12:32:04;;;;;;;22.30;12.65;;;;;;;;;;5052240;28;20025;-80
2021/12/24 12:34:39;;;;;;;19.15;10.65;;;;;;;;;;5064003;28;20037;-79
2021/12/24 12:37:23;;;;;;;21.52;12.10;;;;;;;;;;5066994;28;20048;-79
2021/12/24 12:40:06;;;;;;;28.15;14.98;;;;;;;;;;5068065;28;20110;-79
2021/12/24 12:45:21;;;;;;;18.70;9.98;;;;;;;;;;5063950;28;20032;-79
2021/12/24 12:47:55;;;;;;;26.02;14.63;;;;;;;;;;5062206;28;20032;-79
2021/12/24 12:50:21;;;;;;;29.90;16.48;;;;;;;;;;5067713;28;20035;-79
2021/12/24 12:52:48;;;;;;;34.85;15.52;;;;;;;;;;5067861;28;20028;-80
2021/12/24 12:55:32;;;;;;;22.27;13.05;;;;;;;;;;5059528;28;20119;-79
2021/12/24 12:58:17;;;;;;;23.73;14.95;;;;;;;;;;5056259;28;20479;-80
2021/12/24 13:01:01;;;;;;;32.13;15.70;;;;;;;;;;5063625;28;20079;-81
2021/12/24 13:03:27;;;;;;;23.52;12.38;;;;;;;;;;5059639;28;20043;-80
2021/12/24 13:06:04;;;;;;;24.90;12.15;;;;;;;;;;5082861;28;20031;-80
2021/12/24 13:08:32;;;;;;;22.80;11.55;;;;;;;;;;5072831;28;20021;-80
2021/12/24 13:11:09;;;;;;;24.95;12.88;;;;;;;;;;5055073;28;20021;-79
2021/12/24 13:13:55;;;;;;;21.70;11.38;;;;;;;;;;5071321;28;20036;-80
2021/12/24 13:16:24;;;;;;;20.17;10.90;;;;;;;;;;5058780;28;20485;-80
2021/12/24 13:18:54;;;;;;;17.15;8.40;;;;;;;;;;5055121;28;20068;-79
2021/12/24 13:24:09;;;;;;;34.67;22.08;;;;;;;;;;5063520;28;20044;-78
2021/12/24 13:26:35;;;;;;;45.55;29.33;;;;;;;;;;5054273;28;20353;-79
2021/12/24 13:29:03;;;;;;;44.70;26.50;;;;;;;;;;5063102;28;20104;-78
2021/12/24 13:31:30;;;;;;;34.00;20.90;;;;;;;;;;5061643;28;20032;-79
2021/12/24 13:33:56;;;;;;;53.75;30.95;;;;;;;;;;5068651;28;20033;-79
2021/12/24 13:36:28;;;;;;;54.85;35.53;;;;;;;;;;5070731;28;20036;-79
2021/12/24 13:39:05;;;;;;;49.15;29.35;;;;;;;;;;5064561;28;20028;-79
2021/12/24 13:41:31;;;;;;;50.95;27.73;;;;;;;;;;5061888;28;20116;-79
2021/12/24 13:43:58;;;;;;;36.88;23.60;;;;;;;;;;5063419;28;20139;-79
2021/12/24 13:46:26;;;;;;;34.60;21.23;;;;;;;;;;5067307;28;20020;-79
2021/12/24 13:49:17;;;;;;;48.70;24.40;;;;;;;;;;5059848;28;20064;-78
2021/12/24 13:54:35;;;;;;;49.33;25.90;;;;;;;;;;5052006;28;20139;-78
2021/12/24 13:57:04;;;;;;;41.30;22.13;;;;;;;;;;5065856;28;20036;-79
2021/12/24 13:59:31;;;;;;;41.80;22.05;;;;;;;;;;5066066;28;20028;-80
2021/12/24 14:01:57;;;;;;;39.47;22.13;;;;;;;;;;5060932;28;20028;-79
2021/12/24 14:04:24;;;;;;;41.88;22.45;;;;;;;;;;5066160;28;20028;-79
2021/12/24 14:06:51;;;;;;;33.83;21.48;;;;;;;;;;5072105;28;20028;-79
2021/12/24 14:09:19;;;;;;;29.55;17.67;;;;;;;;;;5076883;28;20355;-78
2021/12/24 14:11:47;;;;;;;25.67;16.75;;;;;;;;;;5065035;28;20055;-78
2021/12/24 14:14:18;;;;;;;24.38;14.52;;;;;;;;;;5055567;28;20090;-78
2021/12/24 14:19:36;;;;;;;22.88;12.85;;;;;;;;;;5065787;28;20118;-78
2021/12/24 14:22:10;;;;;;;20.60;13.65;;;;;;;;;;5061269;28;20946;-77
2021/12/24 14:24:37;;;;;;;21.13;13.93;;;;;;;;;;5070267;28;20041;-78
2021/12/24 14:27:05;;;;;;;21.55;13.85;;;;;;;;;;5068073;28;20028;-78
2021/12/24 14:29:34;;;;;;;23.88;16.25;;;;;;;;;;5063597;28;20086;-78
2021/12/24 14:32:00;;;;;;;25.90;15.93;;;;;;;;;;5049638;28;20025;-79
2021/12/24 14:34:35;;;;;;;26.58;18.08;;;;;;;;;;5053331;28;20108;-79
2021/12/24 14:37:04;;;;;;;27.85;18.05;;;;;;;;;;5048444;28;20147;-79
2021/12/24 14:39:51;;;;;;;40.92;25.08;;;;;;;;;;5062710;28;20653;-79
2021/12/24 14:42:19;;;;;;;31.55;18.50;;;;;;;;;;5066910;28;20029;-79
2021/12/24 14:44:45;;;;;;;35.00;22.17;;;;;;;;;;5070984;28;20033;-79
2021/12/24 14:47:12;;;;;;;32.13;20.10;;;;;;;;;;5067067;28;20033;-80
2021/12/24 14:49:42;;;;;;;29.10;19.05;;;;;;;;;;5072800;28;20113;-79
2021/12/24 14:52:14;;;;;;;32.63;20.38;;;;;;;;;;5059225;28;20388;-79
2021/12/24 14:54:59;;;;;;;31.30;18.05;;;;;;;;;;5061159;28;20045;-80
2021/12/24 14:57:25;;;;;;;27.13;16.67;;;;;;;;;;5066163;28;20036;-79
2021/12/24 14:59:51;;;;;;;28.33;18.02;;;;;;;;;;5049311;28;20036;-80
2021/12/24 15:02:17;;;;;;;47.10;28.73;;;;;;;;;;5055686;28;20033;-79
2021/12/24 15:04:43;;;;;;;53.38;36.78;;;;;;;;;;5049679;28;20079;-80
2021/12/24 15:07:10;;;;;;;57.70;36.67;;;;;;;;;;5061708;28;20060;-79
2021/12/24 15:09:38;;;;;;;47.42;29.35;;;;;;;;;;5063659;28;20764;-80
2021/12/24 15:12:20;;;;;;;42.88;25.75;;;;;;;;;;5064978;28;20124;-81
2021/12/24 15:14:47;;;;;;;47.03;26.83;;;;;;;;;;5074273;28;20379;-81
2021/12/24 15:17:13;;;;;;;39.22;23.08;;;;;;;;;;5075623;28;20275;-81
2021/12/24 15:19:39;;;;;;;35.22;19.77;;;;;;;;;;5067516;28;20033;-80
2021/12/24 15:22:05;;;;;;;39.78;25.70;;;;;;;;;;5062208;28;20027;-80
2021/12/24 15:24:31;;;;;;;39.85;24.73;;;;;;;;;;5071505;28;20070;-80
2021/12/24 15:26:57;;;;;;;37.40;24.33;;;;;;;;;;5073603;28;20024;-79
2021/12/24 15:29:23;;;;;;;37.78;22.67;;;;;;;;;;5063112;28;20468;-80
2021/12/24 15:31:49;;;;;;;40.63;23.55;;;;;;;;;;5054101;28;20104;-81
2021/12/24 15:34:15;;;;;;;37.80;23.77;;;;;;;;;;5073610;28;20120;-81
2021/12/24 15:36:41;;;;;;;54.97;33.38;;;;;;;;;;5064101;28;20215;-80
2021/12/24 15:39:07;;;;;;;35.80;22.13;;;;;;;;;;5062609;28;20083;-80
2021/12/24 15:41:34;;;;;;;30.98;19.00;;;;;;;;;;5069297;28;20028;-80
2021/12/24 15:44:00;;;;;;;37.10;22.08;;;;;;;;;;5071950;28;20111;-80
2021/12/24 15:46:26;;;;;;;30.30;18.08;;;;;;;;;;5069275;28;20033;-80
2021/12/24 15:48:52;;;;;;;33.75;22.27;;;;;;;;;;5068596;28;20044;-81
2021/12/24 15:51:18;;;;;;;37.92;24.70;;;;;;;;;;5073808;28;20062;-80
2021/12/24 15:53:44;;;;;;;39.30;24.15;;;;;;;;;;5073772;28;20077;-80
2021/12/24 15:56:10;;;;;;;37.95;23.25;;;;;;;;;;5072837;28;20028;-81
2021/12/24 15:58:38;;;;;;;51.45;33.75;;;;;;;;;;5069533;28;20143;-79
2021/12/24 16:01:04;;;;;;;40.92;25.38;;;;;;;;;;5068104;28;20041;-80
2021/12/24 16:03:30;;;;;;;40.55;25.50;;;;;;;;;;5066111;28;20036;-80
2021/12/24 16:05:56;;;;;;;44.28;27.33;;;;;;;;;;5057209;28;20724;-79
2021/12/24 16:08:23;;;;;;;57.78;36.35;;;;;;;;;;5070082;28;20036;-79
2021/12/24 16:10:49;;;;;;;60.08;33.65;;;;;;;;;;5068241;28;20040;-79
2021/12/24 16:13:19;;;;;;;93.15;43.55;;;;;;;;;;5065818;28;20072;-78
2021/12/24 16:15:47;;;;;;;65.45;36.20;;;;;;;;;;5067495;28;20032;-79
2021/12/24 16:18:16;;;;;;;57.40;29.85;;;;;;;;;;5061066;28;20029;-80